createdAt,value
2022-11-13T00:01:20.207Z,8.15
2022-11-13T00:03:47.842Z,9.07
2022-11-13T00:06:16.557Z,8.60
2022-11-13T00:08:44.245Z,8.25
2022-11-13T00:11:18.276Z,8.60
2022-11-13T00:13:46.209Z,8.45
2022-11-13T00:16:22.734Z,8.88
2022-11-13T00:18:50.086Z,8.38
2022-11-13T00:21:23.365Z,8.98
2022-11-13T00:23:51.768Z,8.73
2022-11-13T00:26:30.255Z,8.02
2022-11-13T00:29:00.307Z,8.18
2022-11-13T00:31:28.608Z,8.27
2022-11-13T00:36:44.724Z,8.70
2022-11-13T00:39:11.993Z,8.85
2022-11-13T00:41:39.250Z,7.65
2022-11-13T00:44:06.697Z,8.13
2022-11-13T00:46:33.928Z,8.00
2022-11-13T00:49:01.229Z,8.27
2022-11-13T00:51:28.474Z,8.30
2022-11-13T00:53:55.749Z,7.97
2022-11-13T00:56:23.034Z,7.82
2022-11-13T00:58:50.344Z,7.97
2022-11-13T01:01:19.526Z,8.57
2022-11-13T01:03:46.939Z,8.40
2022-11-13T01:06:21.361Z,8.73
2022-11-13T01:08:48.809Z,8.27
2022-11-13T01:11:21.509Z,8.10
2022-11-13T01:13:50.424Z,8.27
2022-11-13T01:16:19.847Z,8.57
2022-11-13T01:18:47.176Z,8.45
2022-11-13T01:21:19.183Z,8.02
2022-11-13T01:23:46.790Z,8.55
2022-11-13T01:26:17.663Z,8.55
2022-11-13T01:28:46.517Z,8.90
2022-11-13T01:31:20.318Z,8.60
2022-11-13T01:33:48.604Z,8.30
2022-11-13T01:36:20.127Z,8.32
2022-11-13T01:38:47.946Z,8.50
2022-11-13T01:41:23.710Z,8.50
2022-11-13T01:43:52.393Z,8.73
2022-11-13T01:46:35.714Z,8.85
2022-11-13T01:49:08.353Z,8.98
2022-11-13T01:51:50.775Z,9.30
2022-11-13T01:54:22.309Z,8.27
2022-11-13T01:56:50.390Z,8.25
2022-11-13T01:59:21.646Z,7.97
2022-11-13T02:01:49.095Z,9.07
2022-11-13T02:04:16.480Z,8.55
2022-11-13T02:06:51.262Z,8.63
2022-11-13T02:09:31.394Z,8.60
2022-11-13T02:11:59.142Z,8.18
2022-11-13T02:14:28.984Z,9.10
2022-11-13T02:17:04.094Z,8.60
2022-11-13T02:19:39.231Z,8.40
2022-11-13T02:22:22.570Z,8.50
2022-11-13T02:24:54.711Z,7.80
2022-11-13T02:27:42.402Z,8.52
2022-11-13T02:30:16.200Z,8.75
2022-11-13T02:32:49.829Z,8.57
2022-11-13T02:35:21.461Z,8.60
2022-11-13T02:37:48.913Z,9.00
2022-11-13T02:40:16.612Z,8.43
2022-11-13T02:42:43.791Z,8.80
2022-11-13T02:45:11.202Z,8.80
2022-11-13T02:47:38.436Z,8.55
2022-11-13T02:50:06.528Z,8.55
2022-11-13T02:52:33.759Z,9.23
2022-11-13T02:55:00.992Z,8.55
2022-11-13T02:57:28.200Z,9.40
2022-11-13T02:59:55.404Z,9.63
2022-11-13T03:02:22.730Z,8.60
2022-11-13T03:05:11.311Z,9.15
2022-11-13T03:07:37.383Z,9.55
2022-11-13T03:10:05.036Z,8.82
2022-11-13T03:12:33.689Z,8.90
2022-11-13T03:15:00.914Z,8.60
2022-11-13T03:17:30.527Z,9.00
2022-11-13T03:19:57.767Z,9.18
2022-11-13T03:22:25.206Z,8.48
2022-11-13T03:24:52.464Z,8.80
2022-11-13T03:27:20.436Z,9.05
2022-11-13T03:29:47.905Z,8.65
2022-11-13T03:32:15.139Z,8.98
2022-11-13T03:34:43.010Z,8.75
2022-11-13T03:37:10.238Z,8.73
2022-11-13T03:39:37.445Z,8.90
2022-11-13T03:42:04.756Z,9.20
2022-11-13T03:44:32.003Z,8.73
2022-11-13T03:46:59.244Z,9.13
2022-11-13T03:49:26.439Z,8.48
2022-11-13T03:51:53.686Z,8.95
2022-11-13T03:54:20.926Z,8.90
2022-11-13T03:56:48.136Z,8.45
2022-11-13T03:59:15.329Z,8.30
2022-11-13T04:01:42.601Z,8.68
2022-11-13T04:04:09.836Z,8.18
2022-11-13T04:06:37.436Z,8.52
2022-11-13T04:09:04.740Z,8.30
2022-11-13T04:11:32.153Z,8.13
2022-11-13T04:13:59.676Z,8.23
2022-11-13T04:16:26.926Z,7.78
2022-11-13T04:18:54.422Z,8.40
2022-11-13T04:21:21.681Z,7.88
2022-11-13T04:23:48.907Z,8.55
2022-11-13T04:26:16.121Z,8.50
2022-11-13T04:28:43.340Z,7.90
2022-11-13T04:31:10.617Z,8.27
2022-11-13T04:33:37.820Z,7.85
2022-11-13T04:36:05.258Z,7.70
2022-11-13T04:38:32.640Z,8.38
2022-11-13T04:41:18.427Z,7.85
2022-11-13T04:43:45.640Z,7.20
2022-11-13T04:46:12.872Z,7.35
2022-11-13T04:48:40.147Z,7.35
2022-11-13T04:51:07.429Z,7.57
2022-11-13T04:53:34.765Z,7.57
2022-11-13T04:56:02.064Z,6.88
2022-11-13T04:58:29.611Z,7.20
2022-11-13T05:00:57.130Z,7.50
2022-11-13T05:03:24.514Z,7.53
2022-11-13T05:05:51.718Z,7.68
2022-11-13T05:08:19.005Z,6.75
2022-11-13T05:10:46.238Z,7.28
2022-11-13T05:13:13.451Z,7.28
2022-11-13T05:15:40.644Z,7.70
2022-11-13T05:18:07.922Z,7.10
2022-11-13T05:20:35.215Z,6.85
2022-11-13T05:23:02.510Z,6.72
2022-11-13T05:25:31.176Z,6.80
2022-11-13T05:27:58.954Z,6.57
2022-11-13T05:30:26.447Z,6.82
2022-11-13T05:32:53.749Z,7.28
2022-11-13T05:35:20.974Z,7.22
2022-11-13T05:37:48.232Z,6.65
2022-11-13T05:40:15.685Z,6.63
2022-11-13T05:42:42.902Z,6.90
2022-11-13T05:45:10.619Z,6.78
2022-11-13T05:47:37.923Z,6.60
2022-11-13T05:50:05.592Z,6.45
2022-11-13T05:52:32.871Z,6.40
2022-11-13T05:55:00.073Z,6.15
2022-11-13T05:57:27.283Z,6.25
2022-11-13T05:59:54.578Z,5.90
2022-11-13T06:02:21.835Z,6.35
2022-11-13T06:04:50.668Z,6.20
2022-11-13T06:07:19.064Z,6.20
2022-11-13T06:09:46.302Z,6.13
2022-11-13T06:12:13.499Z,5.85
2022-11-13T06:14:40.777Z,6.55
2022-11-13T06:17:08.083Z,6.57
2022-11-13T06:19:35.366Z,5.80
2022-11-13T06:22:02.564Z,5.57
2022-11-13T06:24:29.847Z,6.22
2022-11-13T06:26:57.077Z,5.60
2022-11-13T06:29:24.326Z,6.28
2022-11-13T06:31:51.555Z,5.97
2022-11-13T06:34:18.896Z,5.65
2022-11-13T06:36:46.243Z,5.53
2022-11-13T06:39:13.861Z,5.40
2022-11-13T06:41:41.325Z,5.72
2022-11-13T06:44:08.657Z,5.95
2022-11-13T06:46:35.947Z,5.25
2022-11-13T06:49:03.365Z,5.97
2022-11-13T06:51:31.988Z,5.80
2022-11-13T06:53:59.422Z,5.40
2022-11-13T06:56:26.848Z,5.35
2022-11-13T06:58:57.457Z,5.05
2022-11-13T07:01:26.739Z,5.43
2022-11-13T07:03:54.479Z,5.47
2022-11-13T07:06:23.592Z,5.35
2022-11-13T07:08:51.135Z,5.38
2022-11-13T07:11:20.994Z,5.50
2022-11-13T07:13:48.920Z,5.28
2022-11-13T07:16:18.150Z,5.45
2022-11-13T07:18:53.351Z,5.53
2022-11-13T07:21:21.112Z,5.32
2022-11-13T07:23:49.855Z,5.35
2022-11-13T07:26:17.544Z,5.13
2022-11-13T07:28:45.633Z,5.45
2022-11-13T07:31:14.871Z,5.03
2022-11-13T07:33:42.873Z,5.55
2022-11-13T07:36:10.895Z,5.18
2022-11-13T07:38:38.251Z,5.05
2022-11-13T07:41:06.003Z,5.22
2022-11-13T07:43:33.849Z,5.63
2022-11-13T07:46:01.274Z,5.07
2022-11-13T07:48:28.985Z,5.30
2022-11-13T07:50:59.501Z,5.18
2022-11-13T07:53:26.776Z,4.85
2022-11-13T07:55:53.969Z,5.10
2022-11-13T07:58:21.188Z,4.63
2022-11-13T08:00:48.459Z,5.00
2022-11-13T08:03:17.546Z,4.82
2022-11-13T08:05:45.026Z,4.90
2022-11-13T08:08:13.587Z,4.82
2022-11-13T08:10:41.157Z,5.20
2022-11-13T08:13:10.355Z,4.70
2022-11-13T08:15:38.236Z,5.00
2022-11-13T08:18:06.409Z,4.68
2022-11-13T08:20:34.259Z,4.80
2022-11-13T08:23:03.561Z,5.60
2022-11-13T08:25:32.465Z,4.78
2022-11-13T08:28:00.518Z,4.95
2022-11-13T08:30:28.874Z,5.65
2022-11-13T08:32:56.507Z,5.13
2022-11-13T08:35:29.129Z,4.95
2022-11-13T08:38:02.605Z,4.88
2022-11-13T08:40:30.092Z,5.25
2022-11-13T08:43:04.808Z,4.75
2022-11-13T08:48:03.498Z,5.10
2022-11-13T08:50:32.317Z,5.25
2022-11-13T08:53:01.071Z,5.38
2022-11-13T08:55:28.746Z,5.57
2022-11-13T08:58:00.115Z,5.43
2022-11-13T09:00:28.610Z,6.00
2022-11-13T09:02:57.400Z,5.93
2022-11-13T09:05:25.184Z,5.65
2022-11-13T09:07:55.654Z,5.68
2022-11-13T09:10:22.925Z,6.03
2022-11-13T09:12:55.178Z,6.07
2022-11-13T09:15:24.587Z,6.38
2022-11-13T09:17:52.247Z,6.97
2022-11-13T09:20:22.744Z,6.47
2022-11-13T09:22:55.940Z,6.75
2022-11-13T09:25:23.187Z,7.03
2022-11-13T09:27:55.669Z,7.35
2022-11-13T09:30:23.362Z,7.25
2022-11-13T09:32:54.726Z,7.93
2022-11-13T09:35:33.894Z,7.88
2022-11-13T09:38:11.233Z,8.32
2022-11-13T09:40:57.505Z,8.75
2022-11-13T09:44:00.023Z,9.10
2022-11-13T09:46:48.969Z,9.27
2022-11-13T09:49:21.996Z,9.88
2022-11-13T09:51:55.607Z,9.75
2022-11-13T09:54:23.685Z,9.93
2022-11-13T09:57:15.839Z,9.68
2022-11-13T10:00:10.548Z,9.18
2022-11-13T10:03:17.708Z,9.13
2022-11-13T10:06:20.775Z,8.32
2022-11-13T10:09:01.871Z,8.55
2022-11-13T10:11:54.885Z,8.73
2022-11-13T10:14:29.164Z,8.27
2022-11-13T10:17:04.234Z,9.07
2022-11-13T10:19:45.196Z,8.45
2022-11-13T10:22:33.401Z,8.65
2022-11-13T10:25:15.241Z,8.93
2022-11-13T10:27:43.012Z,8.27
2022-11-13T10:30:18.365Z,7.97
2022-11-13T10:32:46.836Z,8.43
2022-11-13T10:35:41.941Z,8.52
2022-11-13T10:38:12.217Z,9.10
2022-11-13T10:40:40.921Z,9.13
2022-11-13T10:43:18.512Z,9.80
2022-11-13T10:46:06.225Z,9.55
2022-11-13T10:48:36.529Z,10.40
2022-11-13T10:51:21.603Z,9.98
2022-11-13T10:53:49.250Z,9.93
2022-11-13T10:56:42.836Z,10.45
2022-11-13T10:59:15.662Z,10.73
2022-11-13T11:01:44.993Z,11.57
2022-11-13T11:04:22.088Z,12.10
2022-11-13T11:07:18.442Z,11.98
2022-11-13T11:09:41.162Z,12.00
2022-11-13T11:12:19.094Z,12.82
2022-11-13T11:14:59.026Z,12.63
2022-11-13T11:17:32.891Z,12.50
2022-11-13T11:20:37.657Z,12.25
2022-11-13T11:23:39.595Z,12.00
2022-11-13T11:26:36.930Z,12.52
2022-11-13T11:29:15.038Z,12.70
2022-11-13T11:31:57.273Z,12.50
2022-11-13T11:34:33.558Z,13.00
2022-11-13T11:37:21.720Z,12.07
2022-11-13T11:40:17.022Z,12.02
2022-11-13T11:45:30.604Z,12.35
2022-11-13T11:47:59.850Z,12.25
2022-11-13T11:50:52.442Z,13.10
2022-11-13T11:53:47.922Z,12.88
2022-11-13T11:56:35.292Z,12.75
2022-11-13T11:59:16.254Z,12.98
2022-11-13T12:02:10.126Z,12.73
2022-11-13T12:04:52.580Z,11.90
2022-11-13T12:07:41.218Z,11.55
2022-11-13T12:10:28.569Z,11.65
2022-11-13T12:13:01.374Z,11.80
2022-11-13T12:15:51.863Z,11.80
2022-11-13T12:18:40.447Z,12.70
2022-11-13T12:21:35.704Z,11.50
2022-11-13T12:27:00.275Z,13.13
2022-11-13T12:29:39.428Z,13.32
2022-11-13T12:32:09.411Z,12.75
2022-11-13T12:35:04.757Z,12.55
2022-11-13T12:40:07.752Z,12.82
2022-11-13T12:42:46.793Z,13.35
2022-11-13T12:45:17.883Z,13.43
2022-11-13T12:47:45.499Z,13.23
2022-11-13T12:50:32.700Z,13.90
2022-11-13T12:53:06.390Z,14.00
2022-11-13T12:55:36.458Z,13.85
2022-11-13T12:58:30.451Z,14.20
2022-11-13T13:01:13.624Z,13.35
2022-11-13T13:04:02.034Z,13.68
2022-11-13T13:06:51.261Z,13.85
2022-11-13T13:09:33.606Z,13.15
2022-11-13T13:12:23.551Z,13.10
2022-11-13T13:15:12.741Z,12.55
2022-11-13T13:17:41.094Z,13.98
2022-11-13T13:20:30.750Z,13.85
2022-11-13T13:23:02.976Z,12.90
2022-11-13T13:25:35.578Z,13.70
2022-11-13T13:28:21.634Z,12.73
2022-11-13T13:31:09.556Z,13.43
2022-11-13T13:33:54.933Z,12.95
2022-11-13T13:36:22.191Z,12.85
2022-11-13T13:39:01.226Z,13.75
2022-11-13T13:41:59.388Z,13.25
2022-11-13T13:44:35.862Z,12.95
2022-11-13T13:47:11.453Z,13.70
2022-11-13T13:49:38.793Z,14.15
2022-11-13T13:52:06.419Z,13.23
2022-11-13T13:54:35.697Z,13.85
2022-11-13T13:57:03.261Z,13.80
2022-11-13T13:59:35.961Z,14.52
2022-11-13T14:02:14.094Z,13.90
2022-11-13T14:04:50.020Z,13.95
2022-11-13T14:07:26.627Z,14.00
2022-11-13T14:10:18.179Z,14.95
2022-11-13T14:12:46.600Z,14.75
2022-11-13T14:15:26.147Z,14.70
2022-11-13T14:18:04.419Z,14.77
2022-11-13T14:20:59.963Z,14.15
2022-11-13T14:23:30.419Z,14.90
2022-11-13T14:25:58.597Z,14.55
2022-11-13T14:28:28.512Z,13.95
2022-11-13T14:31:02.757Z,13.82
2022-11-13T14:33:39.946Z,13.23
2022-11-13T14:36:07.871Z,13.98
2022-11-13T14:38:40.716Z,14.40
2022-11-13T14:41:18.258Z,13.40
2022-11-13T14:43:50.880Z,13.77
2022-11-13T14:46:37.027Z,13.52
2022-11-13T14:49:11.470Z,14.00
2022-11-13T14:51:39.028Z,13.18
2022-11-13T14:54:09.082Z,14.65
2022-11-13T14:56:42.432Z,14.60
2022-11-13T14:59:19.789Z,13.13
2022-11-13T15:01:57.862Z,14.50
2022-11-13T15:04:26.020Z,13.95
2022-11-13T15:06:55.851Z,13.48
2022-11-13T15:09:24.652Z,13.65
2022-11-13T15:11:52.440Z,13.75
2022-11-13T15:14:21.113Z,13.63
2022-11-13T15:16:50.317Z,13.75
2022-11-13T15:19:24.789Z,13.57
2022-11-13T15:22:25.278Z,13.68
2022-11-13T15:24:39.389Z,13.38
2022-11-13T15:27:06.923Z,12.75
2022-11-13T15:29:34.197Z,11.75
2022-11-13T15:32:01.915Z,12.68
2022-11-13T15:34:29.202Z,12.30
2022-11-13T15:36:56.446Z,12.00
2022-11-13T15:39:24.304Z,11.57
2022-11-13T15:41:52.186Z,11.88
2022-11-13T15:44:19.537Z,11.82
2022-11-13T15:46:46.774Z,11.52
2022-11-13T15:49:13.985Z,10.98
2022-11-13T15:51:46.424Z,11.48
2022-11-13T15:54:34.457Z,11.23
2022-11-13T15:57:01.996Z,11.30
2022-11-13T15:59:29.197Z,11.93
2022-11-13T16:01:58.401Z,11.02
2022-11-13T16:04:26.709Z,11.65
2022-11-13T16:07:01.652Z,10.63
2022-11-13T16:09:28.919Z,10.57
2022-11-13T16:11:56.333Z,10.80
2022-11-13T16:14:24.953Z,11.40
2022-11-13T16:16:53.337Z,11.43
2022-11-13T16:19:24.473Z,10.35
2022-11-13T16:21:54.194Z,11.07
2022-11-13T16:24:24.258Z,10.43
2022-11-13T16:26:55.769Z,11.30
2022-11-13T16:29:24.265Z,10.68
2022-11-13T16:31:52.500Z,11.50
2022-11-13T16:34:20.958Z,11.10
2022-11-13T16:36:50.606Z,11.27
2022-11-13T16:39:18.047Z,10.30
2022-11-13T16:41:46.397Z,10.93
2022-11-13T16:44:13.689Z,10.52
2022-11-13T16:46:44.824Z,11.13
2022-11-13T16:49:19.008Z,10.40
2022-11-13T16:51:46.948Z,11.70
2022-11-13T16:54:14.437Z,12.98
2022-11-13T16:56:41.833Z,13.90
2022-11-13T16:59:11.594Z,15.32
2022-11-13T17:01:39.205Z,16.73
2022-11-13T17:04:06.847Z,17.88
2022-11-13T17:06:36.317Z,18.45
2022-11-13T17:09:04.926Z,19.60
2022-11-13T17:11:33.105Z,20.10
2022-11-13T17:14:01.919Z,19.92
2022-11-13T17:16:30.648Z,20.42
2022-11-13T17:18:58.990Z,19.88
2022-11-13T17:21:28.133Z,22.75
2022-11-13T17:24:01.298Z,22.30
2022-11-13T17:26:30.947Z,22.85
2022-11-13T17:29:02.070Z,22.23
2022-11-13T17:31:29.397Z,22.17
2022-11-13T17:33:57.599Z,21.13
2022-11-13T17:36:24.937Z,23.10
2022-11-13T17:38:52.182Z,22.15
2022-11-13T17:41:19.504Z,20.50
2022-11-13T17:43:46.753Z,21.30
2022-11-13T17:46:17.107Z,21.55
2022-11-13T17:48:44.955Z,20.90
2022-11-13T17:51:14.366Z,20.52
2022-11-13T17:53:41.598Z,20.95
2022-11-13T17:56:12.230Z,20.00
2022-11-13T17:58:44.938Z,19.48
2022-11-13T18:01:17.897Z,20.23
2022-11-13T18:03:45.717Z,20.40
2022-11-13T18:06:19.490Z,19.00
2022-11-13T18:08:47.257Z,18.52
2022-11-13T18:11:23.523Z,18.73
2022-11-13T18:13:51.840Z,18.50
2022-11-13T18:18:56.752Z,17.48
2022-11-13T18:21:27.214Z,17.00
2022-11-13T18:24:23.733Z,16.63
2022-11-13T18:26:51.016Z,16.65
2022-11-13T18:29:18.312Z,16.48
2022-11-13T18:31:45.585Z,17.52
2022-11-13T18:34:16.679Z,17.60
2022-11-13T18:36:44.065Z,16.33
2022-11-13T18:39:16.383Z,16.27
2022-11-13T18:41:44.428Z,16.38
2022-11-13T18:44:11.668Z,15.38
2022-11-13T18:46:39.139Z,15.25
2022-11-13T18:49:07.323Z,14.52
2022-11-13T18:51:35.625Z,15.15
2022-11-13T18:54:09.415Z,15.52
2022-11-13T18:56:37.253Z,14.10
2022-11-13T18:59:04.488Z,15.77
2022-11-13T19:01:38.202Z,15.77
2022-11-13T19:04:22.734Z,14.73
2022-11-13T19:06:51.511Z,13.85
2022-11-13T19:09:19.171Z,14.13
2022-11-13T19:11:46.451Z,13.65
2022-11-13T19:14:15.647Z,12.77
2022-11-13T19:16:45.904Z,13.90
2022-11-13T19:19:22.522Z,12.40
2022-11-13T19:21:50.060Z,13.18
2022-11-13T19:24:18.104Z,14.07
2022-11-13T19:26:45.959Z,12.57
2022-11-13T19:29:13.788Z,13.65
2022-11-13T19:31:41.191Z,12.52
2022-11-13T19:34:08.761Z,12.55
2022-11-13T19:36:36.985Z,11.65
2022-11-13T19:39:04.885Z,13.38
2022-11-13T19:41:32.385Z,12.32
2022-11-13T19:44:00.406Z,11.77
2022-11-13T19:46:28.437Z,11.90
2022-11-13T19:48:55.742Z,12.70
2022-11-13T19:51:25.128Z,13.00
2022-11-13T19:53:58.147Z,12.25
2022-11-13T19:56:28.158Z,12.32
2022-11-13T19:58:56.095Z,12.77
2022-11-13T20:01:27.853Z,11.27
2022-11-13T20:04:01.061Z,11.23
2022-11-13T20:06:30.065Z,11.02
2022-11-13T20:08:59.340Z,10.38
2022-11-13T20:11:26.654Z,10.25
2022-11-13T20:16:30.341Z,10.23
2022-11-13T20:18:58.185Z,10.75
2022-11-13T20:21:30.657Z,10.52
2022-11-13T20:23:59.424Z,10.40
2022-11-13T20:26:27.565Z,10.05
2022-11-13T20:28:54.891Z,10.05
2022-11-13T20:31:24.103Z,10.02
2022-11-13T20:33:52.637Z,9.93
2022-11-13T20:36:20.201Z,10.85
2022-11-13T20:38:55.950Z,10.63
2022-11-13T20:41:24.161Z,10.38
2022-11-13T20:43:52.600Z,10.32
2022-11-13T20:46:21.502Z,10.07
2022-11-13T20:48:49.252Z,9.88
2022-11-13T20:51:20.377Z,9.77
2022-11-13T20:53:48.429Z,9.52
2022-11-13T20:56:17.197Z,9.95
2022-11-13T20:58:44.488Z,9.90
2022-11-13T21:01:14.539Z,9.30
2022-11-13T21:03:44.371Z,9.18
2022-11-13T21:06:14.182Z,9.23
2022-11-13T21:08:41.628Z,9.52
2022-11-13T21:11:13.104Z,8.88
2022-11-13T21:13:40.340Z,8.95
2022-11-13T21:16:09.126Z,8.80
2022-11-13T21:18:37.233Z,10.00
2022-11-13T21:21:12.395Z,9.00
2022-11-13T21:23:39.650Z,9.13
2022-11-13T21:26:08.192Z,9.30
2022-11-13T21:28:35.764Z,8.88
2022-11-13T21:31:14.843Z,8.27
2022-11-13T21:33:43.691Z,8.75
2022-11-13T21:36:19.904Z,8.77
2022-11-13T21:38:49.589Z,8.90
2022-11-13T21:41:23.794Z,8.82
2022-11-13T21:43:55.291Z,8.40
2022-11-13T21:46:24.250Z,8.65
2022-11-13T21:49:06.290Z,9.10
2022-11-13T21:51:36.394Z,8.82
2022-11-13T21:54:04.375Z,7.63
2022-11-13T21:56:34.905Z,8.32
2022-11-13T21:59:02.536Z,8.35
2022-11-13T22:01:35.084Z,7.85
2022-11-13T22:04:05.711Z,7.90
2022-11-13T22:06:36.272Z,7.60
2022-11-13T22:09:24.376Z,8.05
2022-11-13T22:11:52.104Z,7.93
2022-11-13T22:14:19.539Z,8.30
2022-11-13T22:16:47.724Z,8.75
2022-11-13T22:19:18.728Z,8.13
2022-11-13T22:21:48.649Z,8.02
2022-11-13T22:24:15.999Z,8.63
2022-11-13T22:26:50.712Z,7.63
2022-11-13T22:29:18.142Z,8.35
2022-11-13T22:31:45.436Z,7.95
2022-11-13T22:34:12.636Z,8.23
2022-11-13T22:36:39.900Z,7.78
2022-11-13T22:39:07.209Z,8.20
2022-11-13T22:41:35.896Z,8.65
2022-11-13T22:44:06.222Z,8.70
2022-11-13T22:46:35.460Z,8.27
2022-11-13T22:49:04.880Z,7.88
2022-11-13T22:51:35.154Z,8.02
2022-11-13T22:54:04.797Z,7.40
2022-11-13T22:56:33.582Z,8.07
2022-11-13T22:59:04.492Z,7.88
2022-11-13T23:01:34.437Z,7.28
2022-11-13T23:04:06.494Z,7.53
2022-11-13T23:06:35.911Z,8.15
2022-11-13T23:09:05.030Z,7.78
2022-11-13T23:11:38.211Z,7.40
2022-11-13T23:14:08.352Z,7.85
2022-11-13T23:16:35.660Z,7.57
2022-11-13T23:19:04.281Z,7.78
2022-11-13T23:21:31.754Z,7.60
2022-11-13T23:23:59.932Z,7.20
2022-11-13T23:26:28.360Z,7.40
2022-11-13T23:28:56.088Z,7.68
2022-11-13T23:31:24.163Z,6.78
2022-11-13T23:33:51.525Z,8.48
2022-11-13T23:36:18.908Z,7.60
2022-11-13T23:38:46.457Z,6.70
2022-11-13T23:41:13.978Z,6.93
2022-11-13T23:46:28.606Z,7.82
2022-11-13T23:48:55.913Z,7.05
2022-11-13T23:51:23.189Z,7.60
2022-11-13T23:53:50.491Z,7.15
2022-11-13T23:56:17.701Z,7.32
2022-11-13T23:58:44.888Z,7.45
